ADDS TAF Board (Experimental) INFO Settings

IDs: Format: Expanded Condensed

KLAS - Las Vegas/McCarran I, NV, US

Issued at 2320 UTC 05 Mar 2015
Updated at: 0000 UTC 06 Mar 2015
Time2356Z 06/00Z 06/01Z 06/02Z 06/03Z 06/04Z 06/05Z 06/06Z 06/07Z 06/08Z 06/09Z 06/10Z 06/11Z 06/12Z
Type OBS PRVL PRVL PRVL PRVL PRVL PRVL PRVL PRVL PRVL PRVL PRVL PRVL PRVL
VIS 10 >6 >6 >6 >6 >6 >6 >6 >6 >6 >6 >6 >6 >6
CIG -- -- -- -- -- -- -- -- -- -- -- -- -- --
Cover CLR SKC SKC SKC SKC SKC SKC SKC SKC SKC SKC SKC SKC SKC
FltCat VFR VFR VFR VFR VFR VFR VFR VFR VFR VFR VFR VFR VFR VFR
WX -- -- -- -- -- -- -- -- -- -- -- -- -- --
WDir VRB 50 50 210 210 210 210 210 210 210 210 210 210 210
WSpd 0 3 3 8 8 8 8 8 8 8 8 8 8 8
WGst -- -- -- -- -- -- -- -- -- -- -- -- -- --
R01/19
XWnd VRB -1 -1 1 1 1 1 1 1 1 1 1 1 1
HWnd VRB 3 3 -8 -8 -8 -8 -8 -8 -8 -8 -8 -8 -8
R07/25
XWnd VRB 2 2 -7 -7 -7 -7 -7 -7 -7 -7 -7 -7 -7
HWnd VRB 2 2 -4 -4 -4 -4 -4 -4 -4 -4 -4 -4 -4

NOTE: TEMPO conditions in [brackets]. Keep in mind TEMPO conditions might be better (lower impact) than prevailing conditions.

Raw TAF
KLAS 052320Z 0600/0624 05003KT P6SM SKC
  FM060200 21008KT P6SM SKC
  FM061700 04005KT P6SM SKC


Raw METAR
KLAS 052356Z 00000KT 10SM CLR 18/M07 A3026 RMK AO2 SLP243 T01831067 10183 20122 56014
KLAS 052256Z 00000KT 10SM CLR 18/M07 A3027 RMK AO2 SLP246 T01781067
KLAS 052156Z VRB03KT 10SM CLR 17/M07 A3028 RMK AO2 SLP251 T01721072
KLAS 052056Z 23004KT 10SM CLR 16/M07 A3030 RMK AO2 SLP259 T01561072 58022

METAR Board
Radar Display
Forecast Discussion

TAF Board Legend

Potential Impact
Threat None Slight Moderate High
Visibility (sm) ≥5.1 5.1>X≥3 3>X≥1 <1
Ceiling (100 ft) ≥30.1 30.1>X≥10 10>X≥5 <5
Wind Speed (kt) <10 10≤X<20 20≤X<30 ≥30
Wind Gust (kt) <15 15≤X<25 25≤X<35 ≥35
Weather No Wx Reported VCTS,-TS,-FZRA,SN TS,FZRA +TS,+FZRA,+SN